Machelen, Belgium
Current Conditions -  °F | °C
As of 10:20 PM on Thursday 18 Dec 2014 (Local Time) from EBBR Reporting Station
Light Rain Light Rain  
Wind Chill: 11°   Ceiling: 1200
Heat Index: 11°   Visibility: 6mi
Dew Point: 10°   Wind: 24mph
Humidity: 94%   Direction: 230°SW
Pressure: 29.94"   Gusts: NA
Location:  50.91°N, 4.44°E
Report Text: EBBR 182120Z 23021KT 9000 -RA FEW009 BKN012 11/10 Q1014 NOSIG
Loading
Personal Weather Stations






























Interactive Weather Map New forecast layout! Learn more

10-Day Weather Forecast

Advertisements
Track Severe Weather on mobile